sensor_id;sensor_type;location;lat;lon;timestamp;pressure;altitude;pressure_sealevel;temperature;humidity
48968;BME280;46511;53.148;8.204;2023-01-25T00:01:16;103812.69;;;2.60;82.51
48968;BME280;46511;53.148;8.204;2023-01-25T00:03:48;103817.47;;;2.08;83.19
48968;BME280;46511;53.148;8.204;2023-01-25T00:06:19;103813.22;;;2.12;83.86
48968;BME280;46511;53.148;8.204;2023-01-25T00:08:50;103812.66;;;2.23;83.19
48968;BME280;46511;53.148;8.204;2023-01-25T00:11:22;103802.47;;;2.03;82.78
48968;BME280;46511;53.148;8.204;2023-01-25T00:13:53;103812.78;;;1.96;83.80
48968;BME280;46511;53.148;8.204;2023-01-25T00:16:25;103807.28;;;1.87;84.73
48968;BME280;46511;53.148;8.204;2023-01-25T00:18:56;103797.78;;;2.24;83.85
48968;BME280;46511;53.148;8.204;2023-01-25T00:21:28;103793.25;;;2.51;82.09
48968;BME280;46511;53.148;8.204;2023-01-25T00:23:59;103789.56;;;2.45;82.53
48968;BME280;46511;53.148;8.204;2023-01-25T00:26:31;103787.06;;;2.48;82.15
48968;BME280;46511;53.148;8.204;2023-01-25T00:29:04;103782.44;;;2.38;82.23
48968;BME280;46511;53.148;8.204;2023-01-25T00:31:37;103778.91;;;2.37;82.75
48968;BME280;46511;53.148;8.204;2023-01-25T00:36:54;103776.97;;;1.97;84.75
48968;BME280;46511;53.148;8.204;2023-01-25T00:39:33;103777.34;;;1.79;86.11
48968;BME280;46511;53.148;8.204;2023-01-25T00:42:04;103773.81;;;2.09;85.36
48968;BME280;46511;53.148;8.204;2023-01-25T00:44:39;103774.97;;;2.20;85.46
48968;BME280;46511;53.148;8.204;2023-01-25T00:47:10;103778.66;;;1.95;84.87
48968;BME280;46511;53.148;8.204;2023-01-25T00:49:43;103779.47;;;1.92;85.83
48968;BME280;46511;53.148;8.204;2023-01-25T00:52:15;103772.31;;;2.18;85.63
48968;BME280;46511;53.148;8.204;2023-01-25T00:54:46;103770.03;;;2.32;84.06
48968;BME280;46511;53.148;8.204;2023-01-25T00:57:18;103774.47;;;2.35;84.15
48968;BME280;46511;53.148;8.204;2023-01-25T00:59:49;103773.25;;;2.22;84.39
48968;BME280;46511;53.148;8.204;2023-01-25T01:02:21;103773.66;;;2.37;84.58
48968;BME280;46511;53.148;8.204;2023-01-25T01:04:52;103766.72;;;2.39;84.82
48968;BME280;46511;53.148;8.204;2023-01-25T01:07:26;103761.47;;;2.39;84.86
48968;BME280;46511;53.148;8.204;2023-01-25T01:09:57;103768.03;;;2.22;85.31
48968;BME280;46511;53.148;8.204;2023-01-25T01:12:30;103753.69;;;2.44;85.11
48968;BME280;46511;53.148;8.204;2023-01-25T01:15:01;103750.13;;;2.40;84.67
48968;BME280;46511;53.148;8.204;2023-01-25T01:17:32;103751.78;;;1.70;86.30
48968;BME280;46511;53.148;8.204;2023-01-25T01:20:03;103753.50;;;1.70;87.78
48968;BME280;46511;53.148;8.204;2023-01-25T01:22:35;103759.38;;;1.91;87.28
48968;BME280;46511;53.148;8.204;2023-01-25T01:25:07;103763.06;;;1.99;86.61
48968;BME280;46511;53.148;8.204;2023-01-25T01:27:38;103757.22;;;2.10;86.43
48968;BME280;46511;53.148;8.204;2023-01-25T01:30:10;103756.81;;;1.94;85.98
48968;BME280;46511;53.148;8.204;2023-01-25T01:32:41;103751.97;;;2.10;85.42
48968;BME280;46511;53.148;8.204;2023-01-25T01:35:12;103743.91;;;2.02;86.82
48968;BME280;46511;53.148;8.204;2023-01-25T01:37:44;103745.88;;;2.11;86.21
48968;BME280;46511;53.148;8.204;2023-01-25T01:40:15;103747.09;;;1.90;86.71
48968;BME280;46511;53.148;8.204;2023-01-25T01:43:03;103753.72;;;2.09;87.43
48968;BME280;46511;53.148;8.204;2023-01-25T01:48:32;103743.69;;;1.94;87.70
48968;BME280;46511;53.148;8.204;2023-01-25T01:51:13;103740.50;;;2.06;87.98
48968;BME280;46511;53.148;8.204;2023-01-25T01:53:47;103733.56;;;1.75;88.03
48968;BME280;46511;53.148;8.204;2023-01-25T01:56:25;103724.69;;;1.70;87.55
48968;BME280;46511;53.148;8.204;2023-01-25T01:59:01;103724.91;;;1.78;87.97
48968;BME280;46511;53.148;8.204;2023-01-25T02:01:34;103730.72;;;1.66;88.93
48968;BME280;46511;53.148;8.204;2023-01-25T02:04:06;103728.81;;;1.93;88.54
48968;BME280;46511;53.148;8.204;2023-01-25T02:06:41;103722.78;;;1.97;88.22
48968;BME280;46511;53.148;8.204;2023-01-25T02:09:17;103720.28;;;2.00;87.98
48968;BME280;46511;53.148;8.204;2023-01-25T02:11:52;103730.84;;;2.04;88.46
48968;BME280;46511;53.148;8.204;2023-01-25T02:14:26;103727.66;;;1.82;88.07
48968;BME280;46511;53.148;8.204;2023-01-25T02:16:59;103722.91;;;1.69;89.38
48968;BME280;46511;53.148;8.204;2023-01-25T02:19:37;103731.69;;;2.03;90.02
48968;BME280;46511;53.148;8.204;2023-01-25T02:22:12;103714.31;;;2.42;88.00
48968;BME280;46511;53.148;8.204;2023-01-25T02:24:49;103708.91;;;2.36;87.10
48968;BME280;46511;53.148;8.204;2023-01-25T02:27:56;103707.13;;;2.35;86.54
48968;BME280;46511;53.148;8.204;2023-01-25T02:30:34;103695.91;;;2.41;86.48
48968;BME280;46511;53.148;8.204;2023-01-25T02:33:05;103698.94;;;2.57;84.73
48968;BME280;46511;53.148;8.204;2023-01-25T02:35:38;103685.47;;;2.08;86.35
48968;BME280;46511;53.148;8.204;2023-01-25T02:38:14;103677.09;;;2.21;86.96
48968;BME280;46511;53.148;8.204;2023-01-25T02:40:48;103670.19;;;2.26;85.99
48968;BME280;46511;53.148;8.204;2023-01-25T02:43:26;103671.84;;;2.21;86.72
48968;BME280;46511;53.148;8.204;2023-01-25T02:46:02;103661.34;;;2.21;87.47
48968;BME280;46511;53.148;8.204;2023-01-25T02:48:55;103666.06;;;1.99;87.50
48968;BME280;46511;53.148;8.204;2023-01-25T02:51:28;103661.19;;;2.15;88.24
48968;BME280;46511;53.148;8.204;2023-01-25T02:54:01;103664.50;;;2.44;86.15
48968;BME280;46511;53.148;8.204;2023-01-25T02:56:34;103676.00;;;2.49;85.88
48968;BME280;46511;53.148;8.204;2023-01-25T02:59:06;103664.59;;;1.76;87.78
48968;BME280;46511;53.148;8.204;2023-01-25T03:01:38;103661.84;;;2.06;88.39
48968;BME280;46511;53.148;8.204;2023-01-25T03:04:11;103660.25;;;2.11;87.52
48968;BME280;46511;53.148;8.204;2023-01-25T03:06:42;103659.78;;;2.29;86.70
48968;BME280;46511;53.148;8.204;2023-01-25T03:09:13;103660.63;;;1.92;88.81
48968;BME280;46511;53.148;8.204;2023-01-25T03:11:44;103660.13;;;2.08;89.49
48968;BME280;46511;53.148;8.204;2023-01-25T03:14:16;103656.31;;;1.94;89.82
48968;BME280;46511;53.148;8.204;2023-01-25T03:16:47;103658.13;;;1.62;90.76
48968;BME280;46511;53.148;8.204;2023-01-25T03:19:18;103664.41;;;1.70;91.80
48968;BME280;46511;53.148;8.204;2023-01-25T03:21:49;103663.91;;;1.83;91.76
48968;BME280;46511;53.148;8.204;2023-01-25T03:24:21;103657.25;;;1.97;91.56
48968;BME280;46511;53.148;8.204;2023-01-25T03:26:52;103653.03;;;2.03;91.39
48968;BME280;46511;53.148;8.204;2023-01-25T03:29:43;103653.41;;;1.83;90.98
48968;BME280;46511;53.148;8.204;2023-01-25T03:32:15;103649.28;;;1.93;91.86
48968;BME280;46511;53.148;8.204;2023-01-25T03:34:47;103651.81;;;1.55;93.10
48968;BME280;46511;53.148;8.204;2023-01-25T03:37:18;103635.53;;;2.02;92.38
48968;BME280;46511;53.148;8.204;2023-01-25T03:39:50;103640.25;;;2.18;91.78
48968;BME280;46511;53.148;8.204;2023-01-25T03:42:21;103637.53;;;2.12;91.24
48968;BME280;46511;53.148;8.204;2023-01-25T03:44:53;103634.53;;;1.62;91.50
48968;BME280;46511;53.148;8.204;2023-01-25T03:47:24;103638.38;;;1.76;91.17
48968;BME280;46511;53.148;8.204;2023-01-25T03:49:56;103633.19;;;2.14;90.60
48968;BME280;46511;53.148;8.204;2023-01-25T03:52:27;103634.66;;;2.39;88.96
48968;BME280;46511;53.148;8.204;2023-01-25T03:55:08;103636.50;;;2.43;88.43
48968;BME280;46511;53.148;8.204;2023-01-25T03:57:40;103635.34;;;2.30;87.82
48968;BME280;46511;53.148;8.204;2023-01-25T04:00:11;103627.44;;;2.28;87.08
48968;BME280;46511;53.148;8.204;2023-01-25T04:02:42;103618.94;;;2.03;88.08
48968;BME280;46511;53.148;8.204;2023-01-25T04:05:14;103628.00;;;2.17;88.35
48968;BME280;46511;53.148;8.204;2023-01-25T04:07:45;103626.56;;;2.28;87.75
48968;BME280;46511;53.148;8.204;2023-01-25T04:10:16;103630.94;;;2.29;87.57
48968;BME280;46511;53.148;8.204;2023-01-25T04:12:48;103619.50;;;2.27;87.75
48968;BME280;46511;53.148;8.204;2023-01-25T04:15:19;103618.09;;;2.41;86.61
48968;BME280;46511;53.148;8.204;2023-01-25T04:17:50;103619.72;;;2.36;86.38
48968;BME280;46511;53.148;8.204;2023-01-25T04:20:21;103609.97;;;2.31;86.81
48968;BME280;46511;53.148;8.204;2023-01-25T04:22:53;103606.69;;;2.39;86.55
48968;BME280;46511;53.148;8.204;2023-01-25T04:25:24;103614.66;;;2.45;86.00
48968;BME280;46511;53.148;8.204;2023-01-25T04:27:55;103609.19;;;1.97;85.81
48968;BME280;46511;53.148;8.204;2023-01-25T04:30:26;103609.38;;;2.05;87.96
48968;BME280;46511;53.148;8.204;2023-01-25T04:33:02;103604.19;;;2.08;87.99
48968;BME280;46511;53.148;8.204;2023-01-25T04:35:35;103608.94;;;2.24;87.68
48968;BME280;46511;53.148;8.204;2023-01-25T04:38:06;103601.50;;;2.05;86.96
48968;BME280;46511;53.148;8.204;2023-01-25T04:40:37;103604.97;;;2.04;88.28
48968;BME280;46511;53.148;8.204;2023-01-25T04:43:10;103596.63;;;2.20;88.09
48968;BME280;46511;53.148;8.204;2023-01-25T04:45:43;103588.25;;;1.98;86.71
48968;BME280;46511;53.148;8.204;2023-01-25T04:48:14;103594.19;;;1.90;87.39
48968;BME280;46511;53.148;8.204;2023-01-25T04:50:46;103586.16;;;1.84;87.93
48968;BME280;46511;53.148;8.204;2023-01-25T04:53:17;103588.81;;;1.85;87.68
48968;BME280;46511;53.148;8.204;2023-01-25T04:55:48;103579.25;;;1.87;87.56
48968;BME280;46511;53.148;8.204;2023-01-25T04:58:20;103569.25;;;1.71;87.85
48968;BME280;46511;53.148;8.204;2023-01-25T05:00:51;103568.41;;;1.72;87.97
48968;BME280;46511;53.148;8.204;2023-01-25T05:03:23;103580.88;;;1.48;88.92
48968;BME280;46511;53.148;8.204;2023-01-25T05:05:54;103580.81;;;1.45;89.54
48968;BME280;46511;53.148;8.204;2023-01-25T05:08:25;103579.28;;;1.53;90.27
48968;BME280;46511;53.148;8.204;2023-01-25T05:10:57;103578.03;;;1.38;90.36
48968;BME280;46511;53.148;8.204;2023-01-25T05:13:28;103571.09;;;1.75;89.89
48968;BME280;46511;53.148;8.204;2023-01-25T05:15:59;103582.44;;;1.08;91.44
48968;BME280;46511;53.148;8.204;2023-01-25T05:18:31;103584.75;;;1.29;92.43
48968;BME280;46511;53.148;8.204;2023-01-25T05:21:02;103579.50;;;1.29;92.17
48968;BME280;46511;53.148;8.204;2023-01-25T05:23:33;103566.66;;;1.73;90.90
48968;BME280;46511;53.148;8.204;2023-01-25T05:26:04;103577.69;;;1.95;88.82
48968;BME280;46511;53.148;8.204;2023-01-25T05:28:54;103573.03;;;1.82;88.10
48968;BME280;46511;53.148;8.204;2023-01-25T05:31:26;103571.69;;;1.63;89.43
48968;BME280;46511;53.148;8.204;2023-01-25T05:33:57;103577.28;;;1.42;89.20
48968;BME280;46511;53.148;8.204;2023-01-25T05:36:28;103575.78;;;1.52;90.82
48968;BME280;46511;53.148;8.204;2023-01-25T05:38:59;103570.56;;;1.21;91.69
48968;BME280;46511;53.148;8.204;2023-01-25T05:41:31;103569.03;;;1.62;91.10
48968;BME280;46511;53.148;8.204;2023-01-25T05:44:02;103569.25;;;1.71;90.38
48968;BME280;46511;53.148;8.204;2023-01-25T05:46:34;103566.34;;;1.60;89.96
48968;BME280;46511;53.148;8.204;2023-01-25T05:49:05;103573.59;;;2.08;89.08
48968;BME280;46511;53.148;8.204;2023-01-25T05:51:36;103566.88;;;1.80;88.60
48968;BME280;46511;53.148;8.204;2023-01-25T05:54:09;103560.97;;;1.54;89.65
48968;BME280;46511;53.148;8.204;2023-01-25T05:56:42;103557.56;;;1.94;89.18
48968;BME280;46511;53.148;8.204;2023-01-25T05:59:14;103557.97;;;1.74;88.35
48968;BME280;46511;53.148;8.204;2023-01-25T06:01:45;103557.63;;;1.97;89.62
48968;BME280;46511;53.148;8.204;2023-01-25T06:04:17;103564.75;;;2.02;88.42
48968;BME280;46511;53.148;8.204;2023-01-25T06:06:48;103557.13;;;1.76;88.15
48968;BME280;46511;53.148;8.204;2023-01-25T06:09:19;103556.84;;;1.64;88.70
48968;BME280;46511;53.148;8.204;2023-01-25T06:11:51;103551.06;;;1.42;90.26
48968;BME280;46511;53.148;8.204;2023-01-25T06:14:22;103556.94;;;1.68;90.30
48968;BME280;46511;53.148;8.204;2023-01-25T06:16:54;103562.00;;;1.97;89.40
48968;BME280;46511;53.148;8.204;2023-01-25T06:19:25;103557.53;;;1.93;88.47
48968;BME280;46511;53.148;8.204;2023-01-25T06:21:56;103548.50;;;1.80;88.21
48968;BME280;46511;53.148;8.204;2023-01-25T06:24:28;103556.06;;;2.06;88.64
48968;BME280;46511;53.148;8.204;2023-01-25T06:26:59;103555.53;;;2.19;88.11
48968;BME280;46511;53.148;8.204;2023-01-25T06:29:30;103557.94;;;2.10;87.60
48968;BME280;46511;53.148;8.204;2023-01-25T06:32:01;103556.00;;;1.65;88.18
48968;BME280;46511;53.148;8.204;2023-01-25T06:34:33;103559.41;;;1.98;88.54
48968;BME280;46511;53.148;8.204;2023-01-25T06:37:04;103559.34;;;1.59;87.92
48968;BME280;46511;53.148;8.204;2023-01-25T06:39:35;103560.47;;;1.34;90.00
48968;BME280;46511;53.148;8.204;2023-01-25T06:42:06;103556.56;;;1.52;90.14
48968;BME280;46511;53.148;8.204;2023-01-25T06:44:38;103567.75;;;1.81;89.70
48968;BME280;46511;53.148;8.204;2023-01-25T06:47:09;103564.94;;;1.73;88.26
48968;BME280;46511;53.148;8.204;2023-01-25T06:49:42;103569.06;;;1.30;88.63
48968;BME280;46511;53.148;8.204;2023-01-25T06:52:13;103561.22;;;1.30;89.06
48968;BME280;46511;53.148;8.204;2023-01-25T06:54:44;103556.56;;;1.52;89.64
48968;BME280;46511;53.148;8.204;2023-01-25T06:57:16;103550.91;;;1.71;88.50
48968;BME280;46511;53.148;8.204;2023-01-25T06:59:47;103552.09;;;1.84;87.73
48968;BME280;46511;53.148;8.204;2023-01-25T07:02:18;103543.63;;;1.59;87.99
48968;BME280;46511;53.148;8.204;2023-01-25T07:04:50;103546.38;;;1.64;88.39
48968;BME280;46511;53.148;8.204;2023-01-25T07:07:21;103542.34;;;1.80;88.72
48968;BME280;46511;53.148;8.204;2023-01-25T07:09:52;103530.69;;;1.65;88.97
48968;BME280;46511;53.148;8.204;2023-01-25T07:12:23;103529.41;;;1.50;88.65
48968;BME280;46511;53.148;8.204;2023-01-25T07:14:55;103530.94;;;1.07;90.50
48968;BME280;46511;53.148;8.204;2023-01-25T07:17:27;103536.41;;;1.16;91.80
48968;BME280;46511;53.148;8.204;2023-01-25T07:19:58;103534.97;;;1.27;91.38
48968;BME280;46511;53.148;8.204;2023-01-25T07:22:29;103523.97;;;1.42;91.99
48968;BME280;46511;53.148;8.204;2023-01-25T07:25:00;103523.19;;;1.45;90.62
48968;BME280;46511;53.148;8.204;2023-01-25T07:27:32;103521.53;;;1.50;91.56
48968;BME280;46511;53.148;8.204;2023-01-25T07:30:04;103530.88;;;1.73;90.55
48968;BME280;46511;53.148;8.204;2023-01-25T07:32:36;103530.06;;;1.77;90.43
48968;BME280;46511;53.148;8.204;2023-01-25T07:35:07;103515.06;;;1.34;90.16
48968;BME280;46511;53.148;8.204;2023-01-25T07:37:38;103521.31;;;1.40;91.34
48968;BME280;46511;53.148;8.204;2023-01-25T07:40:10;103512.50;;;1.37;91.52
48968;BME280;46511;53.148;8.204;2023-01-25T07:42:41;103511.63;;;1.36;91.25
48968;BME280;46511;53.148;8.204;2023-01-25T07:45:12;103516.69;;;0.96;93.49
48968;BME280;46511;53.148;8.204;2023-01-25T07:47:44;103519.19;;;0.93;94.57
48968;BME280;46511;53.148;8.204;2023-01-25T07:50:15;103511.50;;;1.32;93.52
48968;BME280;46511;53.148;8.204;2023-01-25T07:52:46;103505.06;;;1.54;92.85
48968;BME280;46511;53.148;8.204;2023-01-25T07:55:18;103499.69;;;1.85;90.99
48968;BME280;46511;53.148;8.204;2023-01-25T07:57:52;103502.97;;;1.75;90.38
48968;BME280;46511;53.148;8.204;2023-01-25T08:00:25;103495.22;;;1.43;90.31
48968;BME280;46511;53.148;8.204;2023-01-25T08:02:57;103503.69;;;1.69;91.38
48968;BME280;46511;53.148;8.204;2023-01-25T08:05:28;103510.94;;;1.43;91.05
48968;BME280;46511;53.148;8.204;2023-01-25T08:07:59;103506.94;;;1.59;90.54
48968;BME280;46511;53.148;8.204;2023-01-25T08:10:31;103509.66;;;1.62;91.04
48968;BME280;46511;53.148;8.204;2023-01-25T08:13:02;103503.94;;;1.42;91.40
48968;BME280;46511;53.148;8.204;2023-01-25T08:15:33;103505.25;;;1.61;91.11
48968;BME280;46511;53.148;8.204;2023-01-25T08:18:05;103500.81;;;1.59;91.28
48968;BME280;46511;53.148;8.204;2023-01-25T08:20:36;103499.31;;;1.70;90.57
48968;BME280;46511;53.148;8.204;2023-01-25T08:23:07;103505.53;;;1.37;90.65
48968;BME280;46511;53.148;8.204;2023-01-25T08:25:39;103495.91;;;1.36;91.85
48968;BME280;46511;53.148;8.204;2023-01-25T08:28:10;103493.78;;;1.22;92.35
48968;BME280;46511;53.148;8.204;2023-01-25T08:30:41;103484.13;;;1.54;92.74
48968;BME280;46511;53.148;8.204;2023-01-25T08:33:12;103490.25;;;1.54;92.89
48968;BME280;46511;53.148;8.204;2023-01-25T08:35:52;103466.88;;;1.27;91.84
48968;BME280;46511;53.148;8.204;2023-01-25T08:38:25;103484.44;;;1.69;92.01
48968;BME280;46511;53.148;8.204;2023-01-25T08:41:03;103486.50;;;1.45;91.41
48968;BME280;46511;53.148;8.204;2023-01-25T08:43:35;103480.16;;;1.71;90.24
48968;BME280;46511;53.148;8.204;2023-01-25T08:46:08;103483.03;;;1.46;90.72
48968;BME280;46511;53.148;8.204;2023-01-25T08:48:40;103477.81;;;1.46;90.94
48968;BME280;46511;53.148;8.204;2023-01-25T08:51:11;103474.56;;;1.56;91.43
48968;BME280;46511;53.148;8.204;2023-01-25T08:53:44;103470.78;;;1.45;92.83
48968;BME280;46511;53.148;8.204;2023-01-25T08:56:16;103471.50;;;1.37;91.87
48968;BME280;46511;53.148;8.204;2023-01-25T08:58:49;103464.16;;;1.60;91.12
48968;BME280;46511;53.148;8.204;2023-01-25T09:01:21;103463.69;;;1.40;90.88
48968;BME280;46511;53.148;8.204;2023-01-25T09:03:52;103459.00;;;1.62;89.82
48968;BME280;46511;53.148;8.204;2023-01-25T09:06:23;103455.19;;;1.51;89.08
48968;BME280;46511;53.148;8.204;2023-01-25T09:08:55;103450.78;;;1.12;89.81
48968;BME280;46511;53.148;8.204;2023-01-25T09:11:26;103450.22;;;1.24;90.40
48968;BME280;46511;53.148;8.204;2023-01-25T09:13:57;103438.69;;;1.53;90.07
48968;BME280;46511;53.148;8.204;2023-01-25T09:16:28;103437.06;;;1.58;89.35
48968;BME280;46511;53.148;8.204;2023-01-25T09:19:01;103434.56;;;1.63;88.95
48968;BME280;46511;53.148;8.204;2023-01-25T09:21:33;103440.84;;;1.33;89.36
48968;BME280;46511;53.148;8.204;2023-01-25T09:24:05;103434.19;;;1.48;90.37
48968;BME280;46511;53.148;8.204;2023-01-25T09:26:38;103429.75;;;1.83;89.06
48968;BME280;46511;53.148;8.204;2023-01-25T09:29:11;103429.56;;;1.75;87.55
48968;BME280;46511;53.148;8.204;2023-01-25T09:31:42;103419.50;;;1.93;86.84
48968;BME280;46511;53.148;8.204;2023-01-25T09:34:14;103430.38;;;1.33;89.24
48968;BME280;46511;53.148;8.204;2023-01-25T09:36:45;103420.63;;;1.28;90.01
48968;BME280;46511;53.148;8.204;2023-01-25T09:39:20;103396.84;;;1.56;90.18
48968;BME280;46511;53.148;8.204;2023-01-25T09:47:53;103409.84;;;1.91;86.85
48968;BME280;46511;53.148;8.204;2023-01-25T09:50:57;103404.72;;;1.58;87.55
48968;BME280;46511;53.148;8.204;2023-01-25T09:53:40;103404.31;;;1.39;88.89
48968;BME280;46511;53.148;8.204;2023-01-25T09:56:26;103406.69;;;1.68;89.68
48968;BME280;46511;53.148;8.204;2023-01-25T09:59:05;103406.44;;;1.96;89.25
48968;BME280;46511;53.148;8.204;2023-01-25T10:01:52;103399.75;;;2.11;86.88
48968;BME280;46511;53.148;8.204;2023-01-25T10:04:33;103395.19;;;2.00;87.22
48968;BME280;46511;53.148;8.204;2023-01-25T10:10:04;103392.97;;;2.20;87.13
48968;BME280;46511;53.148;8.204;2023-01-25T10:12:41;103383.75;;;1.98;87.24
48968;BME280;46511;53.148;8.204;2023-01-25T10:15:19;103386.13;;;2.28;85.41
48968;BME280;46511;53.148;8.204;2023-01-25T10:18:00;103383.63;;;1.91;86.59
48968;BME280;46511;53.148;8.204;2023-01-25T10:20:42;103381.22;;;2.02;85.79
48968;BME280;46511;53.148;8.204;2023-01-25T10:26:00;103382.38;;;2.17;86.22
48968;BME280;46511;53.148;8.204;2023-01-25T10:31:35;103369.50;;;1.84;86.78
48968;BME280;46511;53.148;8.204;2023-01-25T10:34:17;103369.25;;;1.33;88.68
48968;BME280;46511;53.148;8.204;2023-01-25T10:36:55;103369.03;;;1.24;90.70
48968;BME280;46511;53.148;8.204;2023-01-25T10:39:28;103365.56;;;1.64;90.29
48968;BME280;46511;53.148;8.204;2023-01-25T10:42:06;103352.25;;;1.95;88.59
48968;BME280;46511;53.148;8.204;2023-01-25T10:44:41;103349.91;;;1.26;89.36
48968;BME280;46511;53.148;8.204;2023-01-25T10:47:18;103345.78;;;1.78;88.58
48968;BME280;46511;53.148;8.204;2023-01-25T10:49:56;103332.63;;;2.19;86.46
48968;BME280;46511;53.148;8.204;2023-01-25T10:52:29;103336.56;;;1.98;85.78
48968;BME280;46511;53.148;8.204;2023-01-25T10:55:13;103336.53;;;1.97;85.50
48968;BME280;46511;53.148;8.204;2023-01-25T10:57:52;103323.47;;;1.98;84.96
48968;BME280;46511;53.148;8.204;2023-01-25T11:00:30;103326.31;;;1.67;86.01
48968;BME280;46511;53.148;8.204;2023-01-25T11:03:03;103305.22;;;1.61;87.00
48968;BME280;46511;53.148;8.204;2023-01-25T11:05:35;103297.09;;;1.47;87.36
48968;BME280;46511;53.148;8.204;2023-01-25T11:08:23;103294.50;;;1.49;86.52
48968;BME280;46511;53.148;8.204;2023-01-25T11:11:12;103306.78;;;1.12;87.38
48968;BME280;46511;53.148;8.204;2023-01-25T11:13:44;103301.72;;;1.18;88.76
48968;BME280;46511;53.148;8.204;2023-01-25T11:16:29;103299.44;;;1.33;88.62
48968;BME280;46511;53.148;8.204;2023-01-25T11:19:04;103293.69;;;1.51;87.72
48968;BME280;46511;53.148;8.204;2023-01-25T11:21:54;103288.91;;;1.73;85.61
48968;BME280;46511;53.148;8.204;2023-01-25T11:24:32;103275.38;;;1.98;84.22
48968;BME280;46511;53.148;8.204;2023-01-25T11:27:21;103273.38;;;1.83;83.36
48968;BME280;46511;53.148;8.204;2023-01-25T11:30:07;103258.34;;;1.73;84.99
48968;BME280;46511;53.148;8.204;2023-01-25T11:32:46;103252.91;;;1.64;84.10
48968;BME280;46511;53.148;8.204;2023-01-25T11:35:20;103251.28;;;1.27;87.04
48968;BME280;46511;53.148;8.204;2023-01-25T11:40:40;103234.75;;;1.29;88.08
48968;BME280;46511;53.148;8.204;2023-01-25T11:46:09;103228.34;;;1.59;87.42
48968;BME280;46511;53.148;8.204;2023-01-25T11:49:08;103222.63;;;2.28;85.76
48968;BME280;46511;53.148;8.204;2023-01-25T11:52:01;103224.53;;;2.38;83.15
48968;BME280;46511;53.148;8.204;2023-01-25T11:55:13;103210.63;;;1.91;83.93
48968;BME280;46511;53.148;8.204;2023-01-25T12:03:35;103182.50;;;1.35;85.01
48968;BME280;46511;53.148;8.204;2023-01-25T12:11:59;103169.81;;;1.58;86.08
48968;BME280;46511;53.148;8.204;2023-01-25T12:14:53;103166.44;;;1.64;85.74
48968;BME280;46511;53.148;8.204;2023-01-25T12:17:48;103159.19;;;1.51;84.98
48968;BME280;46511;53.148;8.204;2023-01-25T12:20:38;103134.31;;;1.26;86.49
48968;BME280;46511;53.148;8.204;2023-01-25T12:32:15;103120.16;;;1.63;85.42
48968;BME280;46511;53.148;8.204;2023-01-25T12:35:09;103102.47;;;1.51;86.91
48968;BME280;46511;53.148;8.204;2023-01-25T12:37:43;103103.97;;;1.38;87.50
48968;BME280;46511;53.148;8.204;2023-01-25T12:40:20;103102.56;;;1.56;88.73
48968;BME280;46511;53.148;8.204;2023-01-25T12:43:02;103102.56;;;1.56;87.70
48968;BME280;46511;53.148;8.204;2023-01-25T12:45:35;103106.78;;;1.02;89.62
48968;BME280;46511;53.148;8.204;2023-01-25T12:50:56;103092.50;;;1.32;88.76
48968;BME280;46511;53.148;8.204;2023-01-25T12:53:32;103084.44;;;1.69;88.59
48968;BME280;46511;53.148;8.204;2023-01-25T12:56:07;103066.88;;;1.62;86.99
48968;BME280;46511;53.148;8.204;2023-01-25T12:58:51;103065.09;;;1.13;88.43
48968;BME280;46511;53.148;8.204;2023-01-25T13:01:39;103064.16;;;1.58;88.25
48968;BME280;46511;53.148;8.204;2023-01-25T13:09:57;103055.19;;;1.43;85.54
48968;BME280;46511;53.148;8.204;2023-01-25T13:15:39;103033.94;;;1.80;84.91
48968;BME280;46511;53.148;8.204;2023-01-25T13:21:06;103029.31;;;1.62;85.36
48968;BME280;46511;53.148;8.204;2023-01-25T13:23:42;103035.19;;;1.47;84.95
48968;BME280;46511;53.148;8.204;2023-01-25T13:28:51;103023.53;;;1.31;88.77
48968;BME280;46511;53.148;8.204;2023-01-25T13:34:11;103016.81;;;1.46;87.70
48968;BME280;46511;53.148;8.204;2023-01-25T13:36:44;103012.16;;;1.29;87.32
48968;BME280;46511;53.148;8.204;2023-01-25T13:44:43;103018.69;;;1.53;86.83
48968;BME280;46511;53.148;8.204;2023-01-25T13:47:18;103012.25;;;0.85;88.68
48968;BME280;46511;53.148;8.204;2023-01-25T13:50:11;103026.94;;;1.24;89.09
48968;BME280;46511;53.148;8.204;2023-01-25T13:52:58;103015.34;;;1.61;88.44
48968;BME280;46511;53.148;8.204;2023-01-25T13:55:38;103006.22;;;1.38;87.03
48968;BME280;46511;53.148;8.204;2023-01-25T13:58:20;103011.47;;;1.39;87.92
48968;BME280;46511;53.148;8.204;2023-01-25T14:01:04;103001.31;;;1.08;88.66
48968;BME280;46511;53.148;8.204;2023-01-25T14:03:46;102997.31;;;1.28;89.07
48968;BME280;46511;53.148;8.204;2023-01-25T14:06:28;103006.41;;;1.00;89.35
48968;BME280;46511;53.148;8.204;2023-01-25T14:09:03;102997.00;;;1.10;90.85
48968;BME280;46511;53.148;8.204;2023-01-25T14:11:59;102983.56;;;1.41;89.71
48968;BME280;46511;53.148;8.204;2023-01-25T14:14:33;102981.88;;;1.43;88.61
48968;BME280;46511;53.148;8.204;2023-01-25T14:17:14;102969.81;;;1.53;88.10
48968;BME280;46511;53.148;8.204;2023-01-25T14:19:54;102973.72;;;1.27;88.84
48968;BME280;46511;53.148;8.204;2023-01-25T14:22:26;102973.53;;;1.14;90.53
48968;BME280;46511;53.148;8.204;2023-01-25T14:25:04;102982.31;;;1.20;90.67
48968;BME280;46511;53.148;8.204;2023-01-25T14:27:43;102974.50;;;1.21;90.18
48968;BME280;46511;53.148;8.204;2023-01-25T14:30:24;102971.25;;;1.36;89.83
48968;BME280;46511;53.148;8.204;2023-01-25T14:32:58;102965.69;;;1.16;90.23
48968;BME280;46511;53.148;8.204;2023-01-25T14:35:32;102976.38;;;1.28;91.63
48968;BME280;46511;53.148;8.204;2023-01-25T14:38:21;102974.66;;;1.30;91.58
48968;BME280;46511;53.148;8.204;2023-01-25T14:41:04;102977.72;;;1.05;92.62
48968;BME280;46511;53.148;8.204;2023-01-25T14:43:44;102982.19;;;1.12;91.50
48968;BME280;46511;53.148;8.204;2023-01-25T14:46:19;102975.94;;;1.04;92.36
48968;BME280;46511;53.148;8.204;2023-01-25T14:57:38;102960.47;;;1.16;93.32
48968;BME280;46511;53.148;8.204;2023-01-25T15:02:56;102966.81;;;1.32;92.00